Time;durP1;ratioP1;P1;durP2;ratioP2;P2;SDS_P1;SDS_P2;PMS_P1;PMS_P2;Temp;Humidity;BMP_temperature;BMP_pressure;BME280_temperature;BME280_humidity;BME280_pressure;Samples;Min_cycle;Max_cycle;Signal;HPM_P1;HPM_P2
2022/12/30 02:07:37;;;;;;;18.53;12.63;;;6.80;87.90;;;;;;5041116;28;20220;-92
2022/12/30 02:10:03;;;;;;;24.87;14.20;;;6.70;88.10;;;;;;5024130;28;20169;-91
2022/12/30 02:12:32;;;;;;;31.73;16.57;;;6.60;88.00;;;;;;5198696;23;20215;-92
2022/12/30 06:04:26;;;;;;;;;;;;;;;;;;;;;
2022/12/30 06:07:12;;;;;;;25.87;11.93;;;6.30;89.30;;;;;;5059419;28;20179;-94
2022/12/30 06:09:38;;;;;;;24.70;11.50;;;6.10;89.40;;;;;;5057029;28;20219;-93
2022/12/30 06:12:09;;;;;;;25.67;12.63;;;6.10;89.30;;;;;;5056470;28;20177;-93
2022/12/30 06:14:35;;;;;;;19.17;11.47;;;6.10;89.30;;;;;;5057866;28;20200;-93
2022/12/30 06:17:01;;;;;;;21.53;12.00;;;6.00;89.60;;;;;;5056790;28;20185;-94
2022/12/30 06:19:27;;;;;;;16.83;11.27;;;6.00;89.70;;;;;;5057027;28;20160;-94
2022/12/30 06:21:53;;;;;;;37.07;13.90;;;6.00;89.70;;;;;;5058384;28;20188;-94
2022/12/30 06:24:19;;;;;;;26.70;13.37;;;5.80;89.90;;;;;;5057349;28;20216;-93
2022/12/30 06:26:44;;;;;;;32.13;12.47;;;5.90;90.00;;;;;;5056803;28;20181;-93
2022/12/30 06:29:10;;;;;;;28.80;14.20;;;5.80;90.00;;;;;;5057632;28;20264;-94
2022/12/30 06:31:36;;;;;;;27.67;12.80;;;5.70;90.10;;;;;;5057064;28;20184;-93
2022/12/30 06:34:01;;;;;;;21.43;12.43;;;5.70;90.20;;;;;;5056845;28;20329;-93
2022/12/30 06:36:27;;;;;;;23.87;13.03;;;5.70;90.20;;;;;;5055723;28;20288;-93
2022/12/30 06:38:52;;;;;;;31.00;13.17;;;5.70;90.30;;;;;;5054151;28;20199;-93
2022/12/30 06:41:20;;;;;;;20.70;11.87;;;5.70;90.00;;;;;;5056385;28;20251;-93
2022/12/30 06:46:22;;;;;;;24.07;12.93;;;5.70;90.30;;;;;;5197609;22;20228;-92
2022/12/30 07:25:48;;;;;;;24.93;14.90;;;5.20;91.40;;;;;;5108947;22;20232;-94
2022/12/30 07:28:13;;;;;;;26.30;16.10;;;5.10;91.50;;;;;;5078802;28;20273;-93
2022/12/30 07:30:40;;;;;;;27.80;14.97;;;5.10;91.50;;;;;;5077836;28;20190;-94
2022/12/30 07:33:12;;;;;;;26.03;16.23;;;5.20;91.70;;;;;;5094993;28;20245;-93
2022/12/30 07:35:38;;;;;;;27.60;15.83;;;5.10;91.60;;;;;;5078039;28;20231;-93
2022/12/30 07:38:04;;;;;;;32.57;17.60;;;5.10;91.60;;;;;;5078031;28;20247;-94
2022/12/30 07:40:29;;;;;;;17.10;14.60;;;5.10;91.80;;;;;;5076267;28;20171;-93
2022/12/30 07:43:01;;;;;;;26.43;16.07;;;5.10;91.80;;;;;;5078100;28;20199;-94
2022/12/30 07:45:30;;;;;;;24.37;14.07;;;5.10;91.80;;;;;;5076848;28;20236;-93
2022/12/30 07:47:58;;;;;;;31.13;15.53;;;5.10;91.90;;;;;;5077957;28;20203;-94
2022/12/30 07:50:27;;;;;;;23.37;15.23;;;5.10;91.90;;;;;;5076903;28;20705;-93
2022/12/30 07:52:52;;;;;;;26.50;16.10;;;5.00;91.80;;;;;;5077308;28;20159;-94
2022/12/30 07:55:21;;;;;;;26.47;16.77;;;5.00;91.90;;;;;;5077662;28;20210;-94
2022/12/30 07:57:50;;;;;;;27.70;16.70;;;5.00;92.10;;;;;;5080482;28;20194;-93
2022/12/30 08:00:19;;;;;;;31.53;16.67;;;5.00;92.00;;;;;;5079760;28;20170;-92
2022/12/30 08:02:44;;;;;;;25.00;15.90;;;5.00;92.10;;;;;;5079930;28;20193;-93
2022/12/30 08:05:10;;;;;;;27.80;16.20;;;5.00;92.10;;;;;;5077905;28;20207;-93
2022/12/30 08:07:36;;;;;;;22.10;14.90;;;5.00;92.10;;;;;;5077210;28;20217;-94
2022/12/30 08:10:04;;;;;;;15.73;14.33;;;5.00;92.20;;;;;;5077906;28;20177;-93
2022/12/30 08:12:45;;;;;;;26.17;15.87;;;4.90;92.30;;;;;;5078074;28;20165;-93
2022/12/30 08:15:11;;;;;;;20.27;16.03;;;4.90;92.20;;;;;;5067089;28;20218;-93
2022/12/30 08:17:42;;;;;;;14.93;13.53;;;5.00;92.30;;;;;;5065971;28;20189;-93
2022/12/30 08:20:11;;;;;;;23.80;15.67;;;5.00;92.20;;;;;;5068760;28;20178;-93
2022/12/30 08:22:43;;;;;;;22.30;15.20;;;5.00;92.30;;;;;;5080026;28;20698;-93
2022/12/30 08:25:08;;;;;;;14.83;13.37;;;4.90;92.30;;;;;;5078308;28;20203;-93
2022/12/30 08:27:40;;;;;;;19.67;14.07;;;5.00;92.30;;;;;;5080782;28;20211;-93
2022/12/30 08:30:07;;;;;;;21.13;15.37;;;5.00;92.30;;;;;;5079133;28;20628;-93
2022/12/30 08:32:35;;;;;;;16.73;14.20;;;4.90;92.30;;;;;;5081970;28;20166;-93
2022/12/30 08:58:17;;;;;;;20.87;13.80;;;5.30;91.80;;;;;;5119362;28;20216;-92
2022/12/30 09:00:42;;;;;;;24.13;13.30;;;5.50;91.60;;;;;;5104757;28;20190;-91
2022/12/30 09:03:08;;;;;;;19.13;13.90;;;5.50;91.60;;;;;;5108218;28;20190;-93
2022/12/30 09:05:36;;;;;;;20.50;13.60;;;5.50;91.60;;;;;;5099818;28;20206;-92
2022/12/30 09:08:02;;;;;;;23.60;14.00;;;5.50;91.50;;;;;;5096189;28;20210;-92
2022/12/30 09:10:28;;;;;;;25.63;14.90;;;5.50;91.50;;;;;;5098383;28;20767;-92
2022/12/30 09:12:53;;;;;;;19.67;13.60;;;5.60;91.40;;;;;;5097456;28;20241;-92
2022/12/30 09:15:19;;;;;;;26.97;16.70;;;5.60;91.30;;;;;;5095234;28;20190;-91
2022/12/30 09:17:48;;;;;;;16.93;13.93;;;5.60;91.30;;;;;;5094802;28;20553;-90
2022/12/30 09:20:14;;;;;;;21.87;14.03;;;5.70;91.20;;;;;;5095245;28;20210;-91
2022/12/30 09:22:39;;;;;;;21.47;14.27;;;5.70;91.00;;;;;;5094716;28;20259;-91
2022/12/30 09:25:11;;;;;;;17.77;13.87;;;5.70;90.90;;;;;;5095397;28;20210;-91
2022/12/30 09:27:51;;;;;;;16.93;12.47;;;5.80;90.60;;;;;;5095486;28;20215;-91
2022/12/30 09:30:17;;;;;;;17.53;13.73;;;5.80;90.40;;;;;;5094948;28;20192;-91
2022/12/30 09:32:42;;;;;;;12.60;11.33;;;5.80;90.50;;;;;;5095362;28;20265;-91
2022/12/30 09:35:58;;;;;;;;;;;;;;;;;;;;;
2022/12/30 09:45:45;;;;;;;25.80;14.20;;;6.00;90.00;;;;;;5298701;22;20757;-92
2022/12/30 10:00:18;;;;;;;25.13;13.17;;;6.20;89.50;;;;;;5117758;22;20239;-92
2022/12/30 10:03:24;;;;;;;30.93;14.83;;;6.20;89.30;;;;;;5061220;28;20164;-93
2022/12/30 10:06:10;;;;;;;24.70;13.70;;;6.20;89.30;;;;;;5057135;28;20187;-93
2022/12/30 10:09:11;;;;;;;23.10;13.00;;;6.20;89.30;;;;;;5057005;28;20658;-93
2022/12/30 10:12:14;;;;;;;17.00;12.33;;;6.30;89.10;;;;;;5017487;28;20185;-92
2022/12/30 10:14:49;;;;;;;16.93;13.00;;;6.20;89.10;;;;;;5057842;28;20203;-93
2022/12/30 10:17:52;;;;;;;24.40;13.33;;;6.30;89.00;;;;;;5062494;28;20191;-94
2022/12/30 10:20:46;;;;;;;22.33;12.97;;;6.30;88.70;;;;;;5059967;28;20184;-93
2022/12/30 10:23:28;;;;;;;14.43;11.10;;;6.40;88.60;;;;;;5037738;28;20183;-93
2022/12/30 10:26:12;;;;;;;15.53;11.53;;;6.50;88.50;;;;;;5059052;28;20287;-93
2022/12/30 10:28:48;;;;;;;15.87;11.27;;;6.50;88.20;;;;;;5516861;22;20274;-92
2022/12/30 10:31:21;;;;;;;25.13;12.10;;;6.50;88.20;;;;;;5068378;28;20234;-91
2022/12/30 10:33:49;;;;;;;17.60;11.60;;;6.60;88.20;;;;;;5058498;28;20168;-91
2022/12/30 10:36:41;;;;;;;20.03;11.70;;;6.60;87.60;;;;;;5058942;28;20576;-91
2022/12/30 10:39:21;;;;;;;19.47;11.17;;;6.70;87.50;;;;;;5059328;28;20175;-92
2022/12/30 10:42:23;;;;;;;13.80;11.50;;;6.80;87.30;;;;;;5060257;28;20167;-91
2022/12/30 10:45:18;;;;;;;21.00;11.70;;;6.80;87.60;;;;;;5059391;28;20713;-92
2022/12/30 10:48:02;;;;;;;13.77;10.90;;;6.80;87.40;;;;;;5062525;28;20187;-94
2022/12/30 10:50:38;;;;;;;17.77;10.80;;;6.90;87.20;;;;;;5060452;28;20206;-91
2022/12/30 10:53:19;;;;;;;19.50;9.53;;;6.90;86.80;;;;;;5060023;28;20207;-91
2022/12/30 10:58:44;;;;;;;24.60;12.03;;;6.90;86.80;;;;;;5271648;22;20207;-94
2022/12/30 11:01:18;;;;;;;14.03;8.20;;;7.00;86.80;;;;;;5168951;22;20217;-90
2022/12/30 11:03:56;;;;;;;17.90;12.00;;;7.00;86.20;;;;;;5057578;28;20515;-92
2022/12/30 11:06:26;;;;;;;22.43;9.87;;;7.00;86.30;;;;;;5058329;28;20207;-90
2022/12/30 11:19:24;;;;;;;13.37;9.67;;;6.90;86.30;;;;;;5055993;28;20215;-92
2022/12/30 11:22:06;;;;;;;16.07;9.67;;;6.90;85.80;;;;;;5071641;28;20230;-92
2022/12/30 11:29:52;;;;;;;19.53;10.00;;;6.90;85.70;;;;;;6053682;22;20227;-91
2022/12/30 11:32:40;;;;;;;17.60;10.20;;;6.90;85.70;;;;;;5071709;28;20187;-92
2022/12/30 11:35:33;;;;;;;13.80;9.57;;;7.00;85.70;;;;;;5053017;28;20203;-92
2022/12/30 11:38:34;;;;;;;15.10;9.33;;;6.90;85.50;;;;;;5063245;28;20180;-92
2022/12/30 11:41:44;;;;;;;13.07;9.20;;;6.90;85.80;;;;;;5057037;28;20167;-91
2022/12/30 11:44:18;;;;;;;17.90;9.83;;;6.90;85.50;;;;;;5029925;28;20198;-93
2022/12/30 11:46:50;;;;;;;14.70;10.00;;;6.90;85.90;;;;;;5060646;28;20653;-92
2022/12/30 11:49:37;;;;;;;21.33;10.73;;;6.90;86.20;;;;;;5063971;28;20225;-90
2022/12/30 11:52:03;;;;;;;15.70;10.37;;;6.90;86.00;;;;;;5064851;28;20238;-91
2022/12/30 11:54:33;;;;;;;16.87;9.97;;;6.90;85.90;;;;;;5060024;28;20202;-90
2022/12/30 11:57:06;;;;;;;19.43;10.13;;;6.90;86.10;;;;;;5059678;28;20175;-91
2022/12/30 11:59:34;;;;;;;20.93;10.13;;;6.90;86.00;;;;;;5060190;28;20171;-91
2022/12/30 12:02:04;;;;;;;17.93;10.33;;;6.90;86.10;;;;;;5059262;28;20179;-91
2022/12/30 12:04:39;;;;;;;18.10;10.97;;;6.90;86.10;;;;;;5061728;28;20194;-91
2022/12/30 12:14:01;;;;;;;12.80;9.30;;;6.90;86.30;;;;;;5077127;28;20230;-91
2022/12/30 12:16:41;;;;;;;13.60;10.47;;;6.90;86.30;;;;;;5060010;28;20195;-91
2022/12/30 12:19:38;;;;;;;14.87;10.87;;;6.90;86.50;;;;;;5059359;28;20171;-90
2022/12/30 12:22:13;;;;;;;14.77;9.97;;;6.90;86.40;;;;;;5058591;28;20176;-90
2022/12/30 12:24:44;;;;;;;15.37;10.50;;;6.90;86.40;;;;;;5058555;28;20617;-91
2022/12/30 12:27:17;;;;;;;17.67;10.70;;;6.90;86.30;;;;;;5059361;28;20259;-91
2022/12/30 12:29:44;;;;;;;16.97;10.00;;;7.00;86.00;;;;;;5114043;22;20228;-90
2022/12/30 12:33:03;;;;;;;11.93;9.93;;;7.00;85.90;;;;;;5053600;28;20230;-91
2022/12/30 12:35:43;;;;;;;14.30;9.73;;;7.00;86.00;;;;;;5019950;28;20619;-91
2022/12/30 12:38:18;;;;;;;13.80;10.03;;;7.10;86.10;;;;;;5036134;28;20201;-91
2022/12/30 12:41:06;;;;;;;16.30;9.57;;;7.10;86.00;;;;;;5035566;28;20172;-91
2022/12/30 12:44:00;;;;;;;18.63;10.50;;;7.20;85.40;;;;;;5035471;28;20223;-91
2022/12/30 12:46:48;;;;;;;18.97;10.30;;;7.30;85.30;;;;;;5052166;28;20255;-91
2022/12/30 12:49:20;;;;;;;12.60;10.10;;;7.40;85.20;;;;;;5037087;28;20196;-90
2022/12/30 12:52:10;;;;;;;18.00;11.10;;;7.50;84.80;;;;;;5036265;28;20173;-90
2022/12/30 12:55:14;;;;;;;9.57;8.63;;;7.60;84.80;;;;;;5035981;28;20197;-92
2022/12/30 12:57:57;;;;;;;17.20;10.20;;;7.60;84.20;;;;;;5035730;28;20169;-91
2022/12/30 13:00:25;;;;;;;17.60;15.53;;;7.60;84.00;;;;;;5035835;28;20623;-92
2022/12/30 13:02:59;;;;;;;15.10;10.30;;;7.50;83.90;;;;;;5038625;28;20184;-91
2022/12/30 13:05:40;;;;;;;11.07;9.80;;;7.40;83.70;;;;;;5039502;28;20196;-91
2022/12/30 13:08:36;;;;;;;12.07;10.37;;;7.40;83.70;;;;;;5058559;28;20653;-90
2022/12/30 13:11:26;;;;;;;12.47;10.17;;;7.30;83.70;;;;;;5039414;28;20157;-91
2022/12/30 13:14:00;;;;;;;21.20;10.87;;;7.40;83.60;;;;;;5037343;28;20161;-92
2022/12/30 13:16:36;;;;;;;16.40;10.50;;;7.40;83.50;;;;;;5038091;28;20188;-91
2022/12/30 13:19:04;;;;;;;16.53;10.43;;;7.40;83.60;;;;;;5041705;28;20171;-90
2022/12/30 13:21:30;;;;;;;12.93;10.00;;;7.30;83.90;;;;;;5043649;28;20177;-91
2022/12/30 13:24:05;;;;;;;13.77;12.50;;;7.30;84.00;;;;;;5044270;28;20204;-91
2022/12/30 13:26:51;;;;;;;14.70;10.57;;;7.20;84.00;;;;;;5052316;28;20176;-91
2022/12/30 13:29:19;;;;;;;10.50;9.60;;;7.20;84.00;;;;;;5051578;28;20208;-91
2022/12/30 13:32:23;;;;;;;11.43;10.23;;;7.20;83.90;;;;;;5069860;28;20161;-91
2022/12/30 13:34:57;;;;;;;10.20;9.27;;;7.20;83.70;;;;;;5050135;28;20205;-91
2022/12/30 13:37:46;;;;;;;15.30;10.00;;;7.20;83.90;;;;;;5067149;28;20178;-91
2022/12/30 13:40:15;;;;;;;11.37;9.93;;;7.20;84.10;;;;;;5053032;28;20224;-91
2022/12/30 13:43:11;;;;;;;14.73;11.10;;;7.20;84.10;;;;;;5066450;28;20539;-91
2022/12/30 14:09:35;;;;;;;17.03;10.67;;;7.20;83.70;;;;;;5063901;28;20238;-91
2022/12/30 14:12:23;;;;;;;16.40;11.30;;;7.20;83.40;;;;;;5067922;28;20176;-91
2022/12/30 14:14:52;;;;;;;13.30;11.70;;;7.20;83.30;;;;;;5066910;28;20217;-91
2022/12/30 14:17:29;;;;;;;12.17;10.90;;;7.20;83.30;;;;;;5069196;28;20172;-91
2022/12/30 14:20:26;;;;;;;11.43;9.53;;;7.20;83.20;;;;;;5068634;28;20156;-91
2022/12/30 14:22:58;;;;;;;11.37;10.23;;;7.20;83.30;;;;;;5059104;28;20180;-91
2022/12/30 14:25:37;;;;;;;11.23;10.13;;;7.20;83.30;;;;;;5074227;28;20219;-91
2022/12/30 14:28:18;;;;;;;12.67;10.23;;;7.20;83.40;;;;;;5071444;28;20198;-91
2022/12/30 14:30:58;;;;;;;12.10;10.80;;;7.10;83.80;;;;;;5070095;28;20195;-91
2022/12/30 14:33:58;;;;;;;11.93;10.80;;;7.10;83.90;;;;;;5077157;28;20176;-91
2022/12/30 14:36:28;;;;;;;13.27;9.70;;;7.00;84.30;;;;;;5072393;28;20192;-91
2022/12/30 14:39:07;;;;;;;11.77;10.57;;;7.00;84.50;;;;;;5069630;28;20653;-92
2022/12/30 14:44:59;;;;;;;25.43;14.63;;;6.90;84.50;;;;;;5122610;22;20770;-93
2022/12/30 14:47:46;;;;;;;26.03;17.40;;;6.90;84.70;;;;;;5074076;28;20614;-92
2022/12/30 14:50:18;;;;;;;34.97;17.43;;;6.90;84.70;;;;;;5071958;28;20179;-92
2022/12/30 14:53:10;;;;;;;29.50;15.33;;;7.00;84.70;;;;;;5071282;28;20174;-91
2022/12/30 14:55:45;;;;;;;23.03;14.53;;;6.90;84.40;;;;;;5074607;28;20187;-91
2022/12/30 14:58:21;;;;;;;16.93;12.23;;;6.90;84.80;;;;;;5069734;28;20167;-92
2022/12/30 15:00:49;;;;;;;16.97;12.17;;;6.90;84.70;;;;;;5066752;28;20179;-91
2022/12/30 15:03:21;;;;;;;18.40;13.03;;;6.90;84.70;;;;;;5065466;28;20175;-91
2022/12/30 15:05:48;;;;;;;16.17;12.20;;;6.90;84.70;;;;;;5063779;28;20256;-91
2022/12/30 15:08:16;;;;;;;15.47;11.23;;;6.90;84.50;;;;;;5078297;28;20278;-92
2022/12/30 15:10:45;;;;;;;12.67;10.67;;;7.00;84.30;;;;;;5062409;28;20175;-93
2022/12/30 15:13:49;;;;;;;15.40;10.90;;;7.00;84.40;;;;;;5081458;28;20217;-92
2022/12/30 15:16:27;;;;;;;15.90;10.63;;;7.00;84.40;;;;;;5066669;28;20175;-91
2022/12/30 15:18:58;;;;;;;13.97;12.20;;;7.00;84.60;;;;;;5076826;28;20210;-92
2022/12/30 15:21:30;;;;;;;12.43;9.90;;;7.00;84.70;;;;;;5063583;28;20171;-93
2022/12/30 15:23:59;;;;;;;14.83;10.43;;;7.00;84.40;;;;;;5059786;28;20178;-92
2022/12/30 15:26:27;;;;;;;9.97;8.97;;;7.00;84.40;;;;;;5059531;28;20199;-92
2022/12/30 15:28:54;;;;;;;15.77;10.90;;;7.20;84.00;;;;;;5062905;28;20203;-92
2022/12/30 15:31:25;;;;;;;14.20;9.90;;;7.10;83.90;;;;;;5059905;28;20551;-92
2022/12/30 15:33:56;;;;;;;14.17;10.33;;;7.10;84.10;;;;;;5060327;28;20174;-92
2022/12/30 15:36:25;;;;;;;13.83;10.00;;;7.10;84.00;;;;;;5058832;28;20244;-92
2022/12/30 15:38:52;;;;;;;16.37;10.23;;;7.10;84.20;;;;;;5059796;28;20191;-92
2022/12/30 15:41:24;;;;;;;10.73;9.63;;;7.10;84.10;;;;;;5061485;28;20175;-92
2022/12/30 15:43:52;;;;;;;10.97;9.87;;;7.20;84.10;;;;;;5059835;28;20198;-92
2022/12/30 15:46:28;;;;;;;11.47;10.37;;;7.10;84.10;;;;;;5064174;28;20217;-92
2022/12/30 15:49:13;;;;;;;11.67;10.53;;;7.20;83.90;;;;;;5059000;28;20583;-92
2022/12/30 15:51:49;;;;;;;11.87;10.67;;;7.20;83.80;;;;;;5055170;28;20164;-90
2022/12/30 15:54:37;;;;;;;16.23;11.70;;;7.30;83.90;;;;;;5055143;28;20601;-91
2022/12/30 15:57:13;;;;;;;14.77;10.57;;;7.30;83.40;;;;;;5055200;28;20171;-90
2022/12/30 15:59:49;;;;;;;11.77;9.40;;;7.30;83.40;;;;;;5056154;28;20172;-91
2022/12/30 16:02:25;;;;;;;12.20;10.20;;;7.30;83.30;;;;;;5055295;28;20171;-91
2022/12/30 16:04:52;;;;;;;10.37;9.40;;;7.30;83.20;;;;;;5054882;28;20191;-90
2022/12/30 16:07:30;;;;;;;10.30;9.13;;;7.30;83.50;;;;;;5054846;28;20266;-92
2022/12/30 16:10:00;;;;;;;13.83;10.67;;;7.30;83.20;;;;;;5055075;28;20174;-92
2022/12/30 16:12:37;;;;;;;15.53;11.23;;;7.40;83.00;;;;;;5055115;28;20633;-92
2022/12/30 16:15:06;;;;;;;10.43;9.50;;;7.40;83.10;;;;;;5060919;28;20255;-92
2022/12/30 16:17:49;;;;;;;9.43;8.47;;;7.40;83.10;;;;;;5058472;28;20263;-93
2022/12/30 16:20:42;;;;;;;14.30;9.83;;;7.50;82.80;;;;;;5058833;28;20249;-93
2022/12/30 16:23:18;;;;;;;10.00;9.00;;;7.60;82.40;;;;;;5041293;28;20187;-92
2022/12/30 16:25:52;;;;;;;9.97;8.97;;;7.60;82.60;;;;;;5059217;28;20332;-91
2022/12/30 16:28:43;;;;;;;11.57;8.93;;;7.60;82.20;;;;;;5059733;28;20261;-92
2022/12/30 16:31:14;;;;;;;12.40;10.00;;;7.60;82.40;;;;;;5060207;28;20179;-93
2022/12/30 16:33:41;;;;;;;12.57;11.47;;;7.70;82.20;;;;;;5062955;28;20175;-92
2022/12/30 16:36:13;;;;;;;11.53;10.33;;;7.70;82.20;;;;;;5062602;28;20544;-92
2022/12/30 16:38:42;;;;;;;9.47;8.57;;;7.80;81.80;;;;;;5081676;28;20182;-93
2022/12/30 16:41:20;;;;;;;12.10;10.40;;;7.80;81.70;;;;;;5063340;28;20188;-93
2022/12/30 16:43:47;;;;;;;11.77;10.43;;;7.90;81.60;;;;;;5063165;28;20194;-93
2022/12/30 16:46:19;;;;;;;14.70;9.60;;;7.90;81.50;;;;;;5062667;28;20245;-93
2022/12/30 16:48:45;;;;;;;14.60;11.10;;;7.90;81.40;;;;;;5061095;28;20209;-93
2022/12/30 16:51:21;;;;;;;14.83;9.83;;;8.00;81.20;;;;;;5059920;28;20182;-93
2022/12/30 16:53:47;;;;;;;23.77;10.87;;;8.00;81.20;;;;;;5059601;28;20275;-92
2022/12/30 16:56:12;;;;;;;10.13;8.93;;;7.90;81.40;;;;;;5059173;28;20195;-93
2022/12/30 16:58:38;;;;;;;10.33;9.00;;;8.00;81.30;;;;;;5059273;28;20175;-92
2022/12/30 17:01:05;;;;;;;10.83;8.80;;;7.90;81.60;;;;;;5058564;28;20641;-93
2022/12/30 17:03:31;;;;;;;13.17;9.13;;;8.10;81.10;;;;;;5058443;28;20645;-93
2022/12/30 17:05:56;;;;;;;9.43;8.43;;;8.00;81.30;;;;;;5059700;28;20199;-93
2022/12/30 17:08:25;;;;;;;10.00;9.10;;;8.00;81.50;;;;;;5058274;28;20203;-93
2022/12/30 17:10:55;;;;;;;9.10;8.30;;;8.00;82.20;;;;;;5058050;28;20176;-93
2022/12/30 17:13:30;;;;;;;9.47;8.00;;;8.00;82.60;;;;;;5058442;28;20172;-92
2022/12/30 17:15:57;;;;;;;8.60;7.70;;;7.90;83.20;;;;;;5076425;28;20205;-93
2022/12/30 17:18:23;;;;;;;9.33;7.50;;;7.80;83.70;;;;;;5057923;28;20175;-92
2022/12/30 17:20:54;;;;;;;8.73;7.90;;;7.90;83.30;;;;;;5058121;28;20187;-92
2022/12/30 17:23:32;;;;;;;9.13;8.33;;;7.90;83.40;;;;;;5058461;28;20308;-92
2022/12/30 17:25:58;;;;;;;10.53;8.20;;;7.90;83.40;;;;;;5057889;28;20218;-92
2022/12/30 17:28:23;;;;;;;8.70;7.90;;;7.90;83.70;;;;;;5057257;28;20291;-92
2022/12/30 17:30:49;;;;;;;11.23;8.03;;;7.90;83.60;;;;;;5057309;28;20176;-92
2022/12/30 17:33:15;;;;;;;12.73;7.50;;;8.00;83.90;;;;;;5057458;28;20179;-93
2022/12/30 17:35:40;;;;;;;7.90;7.20;;;8.00;83.90;;;;;;5057667;28;20661;-92
2022/12/30 17:38:06;;;;;;;7.70;7.00;;;8.10;83.50;;;;;;5057778;28;20171;-92
2022/12/30 17:40:31;;;;;;;8.13;7.07;;;8.10;83.60;;;;;;5074871;28;20189;-93
2022/12/30 17:42:57;;;;;;;9.37;7.67;;;8.10;84.40;;;;;;5056856;28;20263;-92
2022/12/30 17:45:24;;;;;;;8.70;7.00;;;8.00;85.20;;;;;;5057246;28;20195;-92
2022/12/30 17:47:50;;;;;;;7.67;6.90;;;7.90;85.80;;;;;;5056854;28;20209;-91
2022/12/30 17:50:17;;;;;;;7.20;6.60;;;7.90;86.30;;;;;;5074834;28;20205;-92
2022/12/30 17:52:47;;;;;;;7.40;6.70;;;8.00;86.70;;;;;;5075246;28;20174;-91
2022/12/30 17:55:14;;;;;;;9.80;6.57;;;7.90;87.00;;;;;;5057020;28;20187;-92
2022/12/30 17:57:40;;;;;;;7.57;6.93;;;8.00;87.10;;;;;;5057138;28;20167;-91
2022/12/30 18:00:10;;;;;;;7.97;6.63;;;8.00;87.20;;;;;;5075022;28;20175;-91
2022/12/30 18:02:40;;;;;;;8.60;6.67;;;7.90;87.60;;;;;;5076196;28;20151;-91
2022/12/30 18:05:09;;;;;;;6.97;6.13;;;7.80;88.20;;;;;;5060808;28;20578;-91
2022/12/30 18:11:33;;;;;;;8.03;6.60;;;7.90;88.40;;;;;;5153082;22;20236;-92
2022/12/30 18:13:59;;;;;;;8.20;6.60;;;8.10;87.40;;;;;;5037274;28;20149;-92
2022/12/30 18:16:35;;;;;;;7.13;6.53;;;8.10;87.60;;;;;;5040359;28;20216;-92
2022/12/30 18:19:02;;;;;;;9.17;6.97;;;8.00;88.00;;;;;;5032922;28;20177;-92
2022/12/30 18:21:28;;;;;;;7.80;6.93;;;8.00;88.30;;;;;;5025196;28;20169;-93
2022/12/30 18:23:54;;;;;;;11.30;7.27;;;7.90;88.80;;;;;;5027355;28;20673;-93
2022/12/30 18:26:23;;;;;;;7.73;7.00;;;7.90;88.90;;;;;;5025344;28;20197;-93
2022/12/30 18:28:49;;;;;;;8.30;6.80;;;7.80;89.10;;;;;;5022070;28;20204;-94
2022/12/30 18:31:20;;;;;;;8.00;6.87;;;7.90;89.40;;;;;;5023203;28;20728;-92
2022/12/30 18:33:46;;;;;;;10.20;7.73;;;7.90;89.70;;;;;;5021390;28;20173;-93
2022/12/30 18:36:16;;;;;;;8.20;7.30;;;7.80;90.10;;;;;;5020232;28;20231;-92
2022/12/30 18:38:42;;;;;;;9.67;8.73;;;7.70;90.70;;;;;;5022318;28;20565;-91
2022/12/30 18:41:14;;;;;;;8.60;7.80;;;7.60;91.20;;;;;;5024008;28;20181;-92
2022/12/30 18:43:39;;;;;;;13.33;8.23;;;7.60;91.60;;;;;;5019374;28;20169;-92
2022/12/30 18:46:06;;;;;;;10.03;8.70;;;7.50;92.00;;;;;;5020636;28;20303;-91
2022/12/30 18:48:33;;;;;;;9.73;8.93;;;7.50;92.30;;;;;;5021774;28;20197;-92
2022/12/30 18:51:00;;;;;;;11.93;10.97;;;7.50;92.50;;;;;;5016930;28;20191;-91
2022/12/30 18:53:27;;;;;;;15.33;10.77;;;7.50;92.80;;;;;;5017342;28;20268;-91
2022/12/30 18:56:05;;;;;;;12.67;11.37;;;7.40;93.00;;;;;;5016771;28;20201;-92
2022/12/30 18:58:31;;;;;;;11.13;10.33;;;7.50;93.10;;;;;;5022008;28;20207;-92
2022/12/30 19:00:57;;;;;;;11.27;10.03;;;7.40;93.30;;;;;;5020989;28;20184;-92
2022/12/30 19:03:23;;;;;;;14.43;11.40;;;7.30;93.50;;;;;;5020408;28;20214;-92
2022/12/30 19:05:48;;;;;;;11.67;10.77;;;7.40;93.70;;;;;;5021308;28;20196;-92
2022/12/30 19:08:14;;;;;;;12.80;11.50;;;7.30;93.80;;;;;;5021040;28;20201;-92
2022/12/30 19:10:39;;;;;;;12.00;8.93;;;7.30;94.00;;;;;;5020522;28;20526;-92
2022/12/30 19:13:05;;;;;;;12.93;11.93;;;7.30;94.20;;;;;;5022561;28;20187;-93
2022/12/30 19:15:34;;;;;;;14.40;13.10;;;7.30;94.40;;;;;;5021746;28;20212;-92
2022/12/30 19:18:00;;;;;;;13.30;12.40;;;7.30;94.40;;;;;;5021105;28;20268;-91
2022/12/30 19:20:26;;;;;;;13.17;11.83;;;7.60;94.50;;;;;;5024713;28;20200;-92
2022/12/30 19:22:52;;;;;;;7.30;6.80;;;7.60;94.50;;;;;;5025361;28;20188;-92
2022/12/30 19:25:17;;;;;;;11.60;10.63;;;7.70;94.40;;;;;;5027747;28;20193;-91
2022/12/30 19:27:43;;;;;;;10.90;10.20;;;7.70;94.30;;;;;;5026311;28;20176;-91
2022/12/30 19:30:09;;;;;;;11.70;10.73;;;7.70;94.30;;;;;;5018526;28;20180;-91
2022/12/30 19:32:35;;;;;;;10.67;9.97;;;7.80;94.30;;;;;;5027959;28;20252;-92
2022/12/30 19:35:00;;;;;;;14.00;10.50;;;7.80;94.30;;;;;;5020383;28;20553;-92
2022/12/30 19:37:26;;;;;;;11.80;10.60;;;7.80;94.50;;;;;;5020251;28;20255;-92
2022/12/30 19:39:51;;;;;;;10.93;10.07;;;7.90;94.70;;;;;;5022026;28;20671;-91
2022/12/30 19:42:17;;;;;;;12.27;11.37;;;7.90;94.80;;;;;;5020990;28;20188;-92
2022/12/30 19:44:42;;;;;;;12.07;10.90;;;8.00;94.80;;;;;;5021435;28;20196;-91
2022/12/30 19:47:11;;;;;;;13.17;12.00;;;8.00;94.90;;;;;;5023060;28;20173;-92
2022/12/30 19:49:37;;;;;;;11.83;11.10;;;8.00;95.00;;;;;;5025315;28;20242;-92
2022/12/30 19:52:02;;;;;;;12.23;11.33;;;8.00;95.10;;;;;;5022524;28;20177;-91
2022/12/30 19:54:28;;;;;;;11.17;10.20;;;8.00;95.10;;;;;;5017550;28;20674;-91
2022/12/30 19:56:56;;;;;;;12.63;11.63;;;8.10;95.30;;;;;;5019770;28;20231;-92
2022/12/30 19:59:21;;;;;;;12.80;11.63;;;8.10;95.30;;;;;;5023394;28;20203;-92
2022/12/30 20:01:47;;;;;;;11.80;10.90;;;8.20;95.40;;;;;;5022755;28;20627;-92
2022/12/30 20:04:13;;;;;;;11.60;10.73;;;8.30;95.50;;;;;;5015608;28;20227;-91
2022/12/30 20:06:41;;;;;;;10.83;10.00;;;8.20;95.50;;;;;;5018085;28;20263;-91
2022/12/30 20:09:09;;;;;;;9.67;8.90;;;8.30;95.50;;;;;;5019295;28;20197;-91
2022/12/30 20:11:36;;;;;;;9.97;9.27;;;8.30;95.60;;;;;;5019479;28;20306;-91
2022/12/30 20:14:01;;;;;;;10.70;9.80;;;8.30;95.60;;;;;;5019061;28;20267;-91
2022/12/30 20:16:30;;;;;;;12.70;11.63;;;8.40;95.70;;;;;;5019481;28;20297;-92
2022/12/30 20:18:58;;;;;;;13.57;12.53;;;8.50;95.50;;;;;;5020399;28;20551;-91
2022/12/30 20:21:26;;;;;;;14.13;13.03;;;8.50;95.50;;;;;;5018912;28;20227;-91
2022/12/30 20:23:52;;;;;;;12.60;11.80;;;8.60;95.30;;;;;;5020053;28;20184;-91
2022/12/30 20:26:19;;;;;;;13.30;12.40;;;8.70;95.40;;;;;;5018852;28;20621;-91
2022/12/30 20:28:45;;;;;;;13.90;13.00;;;8.70;95.30;;;;;;5018931;28;20208;-91
2022/12/30 20:31:18;;;;;;;12.73;11.80;;;8.70;95.30;;;;;;5019859;28;20183;-91
2022/12/30 20:33:44;;;;;;;13.83;12.97;;;8.70;95.30;;;;;;5019064;28;20166;-91
2022/12/30 20:36:09;;;;;;;14.33;13.20;;;8.80;95.20;;;;;;5019186;28;20188;-91
2022/12/30 20:38:35;;;;;;;14.13;12.87;;;8.80;95.20;;;;;;5036177;28;20181;-90
2022/12/30 20:41:03;;;;;;;14.23;13.33;;;8.90;95.20;;;;;;5018896;28;20185;-91
2022/12/30 20:43:31;;;;;;;15.27;13.90;;;8.90;95.10;;;;;;5018937;28;20708;-91
2022/12/30 20:46:01;;;;;;;14.80;13.80;;;9.00;94.90;;;;;;5018978;28;20200;-90
2022/12/30 20:48:27;;;;;;;15.20;14.10;;;9.10;95.00;;;;;;5018423;28;20189;-92
2022/12/30 20:50:52;;;;;;;16.67;15.47;;;9.10;94.90;;;;;;5018615;28;20179;-91
2022/12/30 20:53:18;;;;;;;14.93;14.03;;;9.20;94.80;;;;;;5037144;28;20172;-91
2022/12/30 20:55:43;;;;;;;15.40;14.40;;;9.30;94.50;;;;;;5019042;28;20201;-91
2022/12/30 20:58:09;;;;;;;16.17;15.17;;;9.30;94.50;;;;;;5018766;28;20647;-90
2022/12/30 21:00:37;;;;;;;16.73;15.73;;;9.40;94.30;;;;;;5030929;28;20187;-92
2022/12/30 21:03:21;;;;;;;15.70;14.80;;;9.50;94.30;;;;;;5037926;28;20179;-93
2022/12/30 21:05:53;;;;;;;16.37;15.37;;;9.50;94.40;;;;;;5032049;28;20196;-91
2022/12/30 21:08:18;;;;;;;17.77;16.67;;;9.50;94.30;;;;;;5041338;28;20192;-92
2022/12/30 21:11:01;;;;;;;18.07;16.87;;;9.50;94.30;;;;;;5030864;28;20189;-92
2022/12/30 21:13:47;;;;;;;21.37;19.57;;;9.60;94.30;;;;;;5036571;28;20153;-91
2022/12/30 21:16:16;;;;;;;19.50;18.20;;;9.70;94.20;;;;;;5033986;28;20234;-91
2022/12/30 21:18:45;;;;;;;22.33;20.73;;;9.70;94.10;;;;;;5033291;28;20173;-92
2022/12/30 21:21:11;;;;;;;19.80;18.57;;;9.80;94.20;;;;;;5039098;28;20156;-93
2022/12/30 21:23:40;;;;;;;21.80;20.43;;;9.80;94.10;;;;;;5035085;28;20215;-91
2022/12/30 21:26:17;;;;;;;20.70;19.27;;;9.80;94.10;;;;;;5056090;28;20196;-92